Capitan Av. Selin Zeitun Lopez Airport


Codes: SLRI/RIB
Name: Capitan Av. Selin Zeitun Lopez Airport
City: Riberalta
Country: Bolivia
Elevation: 462 ft.
Wikipedia:

Photos at Capitan Av. Selin Zeitun Lopez Airport


   Photos courtesy of SpottingLog. You can add your own sightings and photos by signing up for a free trial today.



No photos found.

Weather at Capitan Av. Selin Zeitun Lopez Airport


Time (UTC)DescriptionTempratureWindCloud coverageVisibilityPressureHumidity
21-Feb-2024 03:00Light Rain23°C2 mph, N100%6399m1011hPa99%
21-Feb-2024 06:00Moderate Rain23°C4 mph, N100%6412m1010hPa99%
21-Feb-2024 09:00Light Rain23°C2 mph, N100%548m1009hPa100%
21-Feb-2024 12:00Light Rain23°C2 mph, N100%10000m1010hPa99%
21-Feb-2024 15:00Light Rain24°C4 mph, N100%10000m1011hPa98%
21-Feb-2024 18:00Light Rain24°C4 mph, N100%10000m1008hPa98%
21-Feb-2024 21:00Light Rain24°C2 mph, NE100%10000m1006hPa98%
22-Feb-2024 00:00Overcast Clouds23°C4 mph, NE100%10000m1007hPa99%
22-Feb-2024 03:00Overcast Clouds23°C2 mph, N99%10000m1009hPa99%
22-Feb-2024 06:00Light Rain22°C0 mph, NE99%10000m1007hPa100%
22-Feb-2024 09:00Light Rain22°C2 mph, NE100%10000m1007hPa99%
22-Feb-2024 12:00Light Rain23°C2 mph, NE100%10000m1009hPa99%
22-Feb-2024 15:00Light Rain25°C2 mph, NE100%10000m1010hPa91%
22-Feb-2024 18:00Overcast Clouds27°C4 mph, N98%10000m1007hPa74%
22-Feb-2024 21:00Broken Clouds27°C0 mph, SW83%10000m1006hPa77%
23-Feb-2024 00:00Light Rain23°C2 mph, SW91%10000m1008hPa95%
23-Feb-2024 03:00Overcast Clouds23°C0 mph, NW100%10000m1009hPa95%
23-Feb-2024 06:00Overcast Clouds23°C2 mph, S100%10000m1007hPa96%
23-Feb-2024 09:00Light Rain23°C0 mph, SW100%10000m1008hPa96%
23-Feb-2024 12:00Light Rain25°C0 mph, E96%10000m1010hPa90%
23-Feb-2024 15:00Broken Clouds33°C2 mph, N75%10000m1010hPa51%
23-Feb-2024 18:00Broken Clouds35°C4 mph, N58%10000m1006hPa45%
23-Feb-2024 21:00Overcast Clouds31°C2 mph, N88%10000m1004hPa60%
24-Feb-2024 00:00Overcast Clouds27°C2 mph, E88%10000m1006hPa77%
24-Feb-2024 03:00Moderate Rain23°C2 mph, SW98%6150m1010hPa100%
24-Feb-2024 06:00Light Rain23°C2 mph, SW99%6458m1009hPa100%
24-Feb-2024 09:00Moderate Rain23°C4 mph, S100%10000m1010hPa99%
24-Feb-2024 12:00Light Rain23°C2 mph, S100%10000m1012hPa99%
24-Feb-2024 15:00Light Rain24°C0 mph, N100%10000m1014hPa99%
24-Feb-2024 18:00Light Rain26°C2 mph, NW98%6107m1011hPa90%
24-Feb-2024 21:00Moderate Rain24°C2 mph, NW100%10000m1010hPa97%
25-Feb-2024 00:00Light Rain23°C2 mph, E100%10000m1011hPa99%
25-Feb-2024 03:00Overcast Clouds23°C0 mph, NE100%10000m1013hPa99%
25-Feb-2024 06:00Light Rain23°C2 mph, SE100%10000m1012hPa100%
25-Feb-2024 09:00Light Rain22°C2 mph, E100%10000m1012hPa99%
25-Feb-2024 12:00Light Rain23°C0 mph, N100%10000m1013hPa99%
25-Feb-2024 15:00Overcast Clouds24°C0 mph, NE100%10000m1015hPa94%
25-Feb-2024 18:00Overcast Clouds27°C2 mph, NE100%10000m1011hPa76%
25-Feb-2024 21:00Light Rain25°C2 mph, E100%8106m1010hPa97%
26-Feb-2024 00:00Light Rain23°C2 mph, E100%10000m1012hPa98%